sensor_id;sensor_type;location;lat;lon;timestamp;temperature;humidity
4962;DHT22;2496;52.468;13.342;2023-04-12T00:01:04;6.80;99.90
4962;DHT22;2496;52.468;13.342;2023-04-12T00:03:31;6.80;99.90
4962;DHT22;2496;52.468;13.342;2023-04-12T00:05:59;6.80;99.90
4962;DHT22;2496;52.468;13.342;2023-04-12T00:08:28;6.80;99.90
4962;DHT22;2496;52.468;13.342;2023-04-12T00:10:57;6.80;99.90
4962;DHT22;2496;52.468;13.342;2023-04-12T00:13:24;6.80;99.90
4962;DHT22;2496;52.468;13.342;2023-04-12T00:15:51;6.70;99.90
4962;DHT22;2496;52.468;13.342;2023-04-12T00:18:20;6.70;99.90
4962;DHT22;2496;52.468;13.342;2023-04-12T00:20:49;6.70;99.90
4962;DHT22;2496;52.468;13.342;2023-04-12T00:23:16;6.70;99.90
4962;DHT22;2496;52.468;13.342;2023-04-12T00:25:43;6.70;99.90
4962;DHT22;2496;52.468;13.342;2023-04-12T00:28:10;6.60;99.90
4962;DHT22;2496;52.468;13.342;2023-04-12T00:30:37;6.60;99.90
4962;DHT22;2496;52.468;13.342;2023-04-12T00:33:05;6.60;99.90
4962;DHT22;2496;52.468;13.342;2023-04-12T00:35:34;6.60;99.90
4962;DHT22;2496;52.468;13.342;2023-04-12T00:38:01;6.50;99.90
4962;DHT22;2496;52.468;13.342;2023-04-12T00:40:30;6.50;99.90
4962;DHT22;2496;52.468;13.342;2023-04-12T00:42:57;6.50;99.90
4962;DHT22;2496;52.468;13.342;2023-04-12T00:45:24;6.50;99.90
4962;DHT22;2496;52.468;13.342;2023-04-12T00:47:53;6.50;99.90
4962;DHT22;2496;52.468;13.342;2023-04-12T00:50:22;6.50;99.90
4962;DHT22;2496;52.468;13.342;2023-04-12T00:52:53;6.50;99.90
4962;DHT22;2496;52.468;13.342;2023-04-12T00:55:21;6.40;99.90
4962;DHT22;2496;52.468;13.342;2023-04-12T00:57:48;6.40;99.90
4962;DHT22;2496;52.468;13.342;2023-04-12T01:00:16;6.40;99.90
4962;DHT22;2496;52.468;13.342;2023-04-12T01:02:45;6.40;99.90
4962;DHT22;2496;52.468;13.342;2023-04-12T01:05:17;6.40;99.90
4962;DHT22;2496;52.468;13.342;2023-04-12T01:07:53;6.30;99.90
4962;DHT22;2496;52.468;13.342;2023-04-12T01:10:30;6.20;99.90
4962;DHT22;2496;52.468;13.342;2023-04-12T01:13:04;6.20;99.90
4962;DHT22;2496;52.468;13.342;2023-04-12T01:15:38;6.10;99.90
4962;DHT22;2496;52.468;13.342;2023-04-12T01:18:08;6.10;99.90
4962;DHT22;2496;52.468;13.342;2023-04-12T01:20:42;6.10;99.90
4962;DHT22;2496;52.468;13.342;2023-04-12T01:23:25;6.00;99.90
4962;DHT22;2496;52.468;13.342;2023-04-12T01:26:21;6.00;99.90
4962;DHT22;2496;52.468;13.342;2023-04-12T01:29:01;6.00;99.90
4962;DHT22;2496;52.468;13.342;2023-04-12T01:31:29;6.00;99.90
4962;DHT22;2496;52.468;13.342;2023-04-12T01:33:57;5.90;99.90
4962;DHT22;2496;52.468;13.342;2023-04-12T01:36:25;5.90;99.90
4962;DHT22;2496;52.468;13.342;2023-04-12T01:38:53;5.90;99.90
4962;DHT22;2496;52.468;13.342;2023-04-12T01:41:20;5.90;99.90
4962;DHT22;2496;52.468;13.342;2023-04-12T01:43:47;5.90;99.90
4962;DHT22;2496;52.468;13.342;2023-04-12T01:46:18;5.90;99.90
4962;DHT22;2496;52.468;13.342;2023-04-12T01:48:49;5.90;99.90
4962;DHT22;2496;52.468;13.342;2023-04-12T01:51:22;5.90;99.90
4962;DHT22;2496;52.468;13.342;2023-04-12T01:53:56;5.90;99.90
4962;DHT22;2496;52.468;13.342;2023-04-12T01:56:26;5.80;99.90
4962;DHT22;2496;52.468;13.342;2023-04-12T01:58:54;5.80;99.90
4962;DHT22;2496;52.468;13.342;2023-04-12T02:01:24;5.80;99.90
4962;DHT22;2496;52.468;13.342;2023-04-12T02:03:54;5.80;99.90
4962;DHT22;2496;52.468;13.342;2023-04-12T02:06:24;5.70;99.90
4962;DHT22;2496;52.468;13.342;2023-04-12T02:08:56;5.70;99.90
4962;DHT22;2496;52.468;13.342;2023-04-12T02:11:24;5.70;99.90
4962;DHT22;2496;52.468;13.342;2023-04-12T02:13:51;5.60;99.90
4962;DHT22;2496;52.468;13.342;2023-04-12T02:16:18;5.60;99.90
4962;DHT22;2496;52.468;13.342;2023-04-12T02:18:49;5.50;99.90
4962;DHT22;2496;52.468;13.342;2023-04-12T02:21:16;5.50;99.90
4962;DHT22;2496;52.468;13.342;2023-04-12T02:23:43;5.50;99.90
4962;DHT22;2496;52.468;13.342;2023-04-12T02:26:10;5.50;99.90
4962;DHT22;2496;52.468;13.342;2023-04-12T02:28:37;5.50;99.90
4962;DHT22;2496;52.468;13.342;2023-04-12T02:31:05;5.50;99.90
4962;DHT22;2496;52.468;13.342;2023-04-12T02:33:32;5.50;99.90
4962;DHT22;2496;52.468;13.342;2023-04-12T02:36:01;5.40;99.90
4962;DHT22;2496;52.468;13.342;2023-04-12T02:38:28;5.40;99.90
4962;DHT22;2496;52.468;13.342;2023-04-12T02:40:56;5.40;99.90
4962;DHT22;2496;52.468;13.342;2023-04-12T02:43:23;5.40;99.90
4962;DHT22;2496;52.468;13.342;2023-04-12T02:45:50;5.40;99.90
4962;DHT22;2496;52.468;13.342;2023-04-12T02:48:17;5.40;99.90
4962;DHT22;2496;52.468;13.342;2023-04-12T02:50:43;5.40;99.90
4962;DHT22;2496;52.468;13.342;2023-04-12T02:53:12;5.40;99.90
4962;DHT22;2496;52.468;13.342;2023-04-12T02:55:39;5.30;99.90
4962;DHT22;2496;52.468;13.342;2023-04-12T02:58:06;5.30;99.90
4962;DHT22;2496;52.468;13.342;2023-04-12T03:00:33;5.30;99.90
4962;DHT22;2496;52.468;13.342;2023-04-12T03:03:00;5.30;99.90
4962;DHT22;2496;52.468;13.342;2023-04-12T03:05:28;5.30;99.90
4962;DHT22;2496;52.468;13.342;2023-04-12T03:07:55;5.30;99.90
4962;DHT22;2496;52.468;13.342;2023-04-12T03:10:23;5.20;99.90
4962;DHT22;2496;52.468;13.342;2023-04-12T03:12:50;5.20;99.90
4962;DHT22;2496;52.468;13.342;2023-04-12T03:15:17;5.20;99.90
4962;DHT22;2496;52.468;13.342;2023-04-12T03:17:44;5.20;99.90
4962;DHT22;2496;52.468;13.342;2023-04-12T03:20:11;5.20;99.90
4962;DHT22;2496;52.468;13.342;2023-04-12T03:22:39;5.10;99.90
4962;DHT22;2496;52.468;13.342;2023-04-12T03:25:06;5.10;99.90
4962;DHT22;2496;52.468;13.342;2023-04-12T03:27:35;5.00;99.90
4962;DHT22;2496;52.468;13.342;2023-04-12T03:30:03;5.00;99.90
4962;DHT22;2496;52.468;13.342;2023-04-12T03:32:31;5.00;99.90
4962;DHT22;2496;52.468;13.342;2023-04-12T03:34:58;5.00;99.90
4962;DHT22;2496;52.468;13.342;2023-04-12T03:37:25;5.00;99.90
4962;DHT22;2496;52.468;13.342;2023-04-12T03:39:52;5.00;99.90
4962;DHT22;2496;52.468;13.342;2023-04-12T03:42:18;5.00;99.90
4962;DHT22;2496;52.468;13.342;2023-04-12T03:44:47;4.90;99.90
4962;DHT22;2496;52.468;13.342;2023-04-12T03:47:14;4.90;99.90
4962;DHT22;2496;52.468;13.342;2023-04-12T03:49:41;4.90;99.90
4962;DHT22;2496;52.468;13.342;2023-04-12T03:52:08;4.80;99.90
4962;DHT22;2496;52.468;13.342;2023-04-12T03:54:35;4.70;99.90
4962;DHT22;2496;52.468;13.342;2023-04-12T03:57:02;4.70;99.90
4962;DHT22;2496;52.468;13.342;2023-04-12T03:59:29;4.60;99.90
4962;DHT22;2496;52.468;13.342;2023-04-12T04:01:58;4.60;99.90
4962;DHT22;2496;52.468;13.342;2023-04-12T04:04:26;4.60;99.90
4962;DHT22;2496;52.468;13.342;2023-04-12T04:06:53;4.60;99.90
4962;DHT22;2496;52.468;13.342;2023-04-12T04:09:21;4.60;99.90
4962;DHT22;2496;52.468;13.342;2023-04-12T04:11:48;4.60;99.90
4962;DHT22;2496;52.468;13.342;2023-04-12T04:14:16;4.70;99.90
4962;DHT22;2496;52.468;13.342;2023-04-12T04:16:43;4.70;99.90
4962;DHT22;2496;52.468;13.342;2023-04-12T04:19:11;4.70;99.90
4962;DHT22;2496;52.468;13.342;2023-04-12T04:21:38;4.70;99.90
4962;DHT22;2496;52.468;13.342;2023-04-12T04:24:09;4.70;99.90
4962;DHT22;2496;52.468;13.342;2023-04-12T04:26:37;4.60;99.90
4962;DHT22;2496;52.468;13.342;2023-04-12T04:29:04;4.60;99.90
4962;DHT22;2496;52.468;13.342;2023-04-12T04:31:31;4.60;99.90
4962;DHT22;2496;52.468;13.342;2023-04-12T04:34:01;4.60;99.90
4962;DHT22;2496;52.468;13.342;2023-04-12T04:36:33;4.60;99.90
4962;DHT22;2496;52.468;13.342;2023-04-12T04:39:00;4.60;99.90
4962;DHT22;2496;52.468;13.342;2023-04-12T04:41:29;4.60;99.90
4962;DHT22;2496;52.468;13.342;2023-04-12T04:43:59;4.70;99.90
4962;DHT22;2496;52.468;13.342;2023-04-12T04:46:26;4.70;99.90
4962;DHT22;2496;52.468;13.342;2023-04-12T04:48:55;4.70;99.90
4962;DHT22;2496;52.468;13.342;2023-04-12T04:51:23;4.70;99.90
4962;DHT22;2496;52.468;13.342;2023-04-12T04:53:52;4.70;99.90
4962;DHT22;2496;52.468;13.342;2023-04-12T04:56:19;4.70;99.90
4962;DHT22;2496;52.468;13.342;2023-04-12T04:58:47;4.60;99.90
4962;DHT22;2496;52.468;13.342;2023-04-12T05:01:15;4.60;99.90
4962;DHT22;2496;52.468;13.342;2023-04-12T05:03:42;4.60;99.90
4962;DHT22;2496;52.468;13.342;2023-04-12T05:06:10;4.60;99.90
4962;DHT22;2496;52.468;13.342;2023-04-12T05:08:37;4.60;99.90
4962;DHT22;2496;52.468;13.342;2023-04-12T05:11:06;4.60;99.90
4962;DHT22;2496;52.468;13.342;2023-04-12T05:13:33;4.70;99.90
4962;DHT22;2496;52.468;13.342;2023-04-12T05:16:00;4.70;99.90
4962;DHT22;2496;52.468;13.342;2023-04-12T05:18:27;4.70;99.90
4962;DHT22;2496;52.468;13.342;2023-04-12T05:20:54;4.70;99.90
4962;DHT22;2496;52.468;13.342;2023-04-12T05:23:21;4.70;99.90
4962;DHT22;2496;52.468;13.342;2023-04-12T05:25:48;4.70;99.90
4962;DHT22;2496;52.468;13.342;2023-04-12T05:28:16;4.80;99.90
4962;DHT22;2496;52.468;13.342;2023-04-12T05:30:44;4.80;99.90
4962;DHT22;2496;52.468;13.342;2023-04-12T05:33:11;4.90;99.90
4962;DHT22;2496;52.468;13.342;2023-04-12T05:35:38;4.90;99.90
4962;DHT22;2496;52.468;13.342;2023-04-12T05:38:05;4.90;99.90
4962;DHT22;2496;52.468;13.342;2023-04-12T05:40:32;5.00;99.90
4962;DHT22;2496;52.468;13.342;2023-04-12T05:43:01;4.90;99.90
4962;DHT22;2496;52.468;13.342;2023-04-12T05:45:29;4.90;99.90
4962;DHT22;2496;52.468;13.342;2023-04-12T05:47:56;4.90;99.90
4962;DHT22;2496;52.468;13.342;2023-04-12T05:50:23;4.90;99.90
4962;DHT22;2496;52.468;13.342;2023-04-12T05:52:50;5.00;99.90
4962;DHT22;2496;52.468;13.342;2023-04-12T05:55:18;5.00;99.90
4962;DHT22;2496;52.468;13.342;2023-04-12T05:57:46;5.10;99.90
4962;DHT22;2496;52.468;13.342;2023-04-12T06:00:14;5.20;99.90
4962;DHT22;2496;52.468;13.342;2023-04-12T06:02:44;5.10;99.90
4962;DHT22;2496;52.468;13.342;2023-04-12T06:05:12;5.20;99.90
4962;DHT22;2496;52.468;13.342;2023-04-12T06:07:41;5.20;99.90
4962;DHT22;2496;52.468;13.342;2023-04-12T06:10:13;5.30;99.90
4962;DHT22;2496;52.468;13.342;2023-04-12T06:12:40;5.40;99.90
4962;DHT22;2496;52.468;13.342;2023-04-12T06:15:08;5.50;99.90
4962;DHT22;2496;52.468;13.342;2023-04-12T06:17:35;5.60;99.90
4962;DHT22;2496;52.468;13.342;2023-04-12T06:20:04;5.70;99.90
4962;DHT22;2496;52.468;13.342;2023-04-12T06:22:33;6.00;99.90
4962;DHT22;2496;52.468;13.342;2023-04-12T06:25:00;6.40;99.90
4962;DHT22;2496;52.468;13.342;2023-04-12T06:27:28;7.00;99.90
4962;DHT22;2496;52.468;13.342;2023-04-12T06:29:55;7.50;99.90
4962;DHT22;2496;52.468;13.342;2023-04-12T06:32:22;8.00;99.90
4962;DHT22;2496;52.468;13.342;2023-04-12T06:34:49;8.30;99.90
4962;DHT22;2496;52.468;13.342;2023-04-12T06:37:17;8.50;99.90
4962;DHT22;2496;52.468;13.342;2023-04-12T06:39:44;8.60;99.90
4962;DHT22;2496;52.468;13.342;2023-04-12T06:42:12;8.70;99.90
4962;DHT22;2496;52.468;13.342;2023-04-12T06:44:39;9.00;99.90
4962;DHT22;2496;52.468;13.342;2023-04-12T06:47:06;9.20;99.90
4962;DHT22;2496;52.468;13.342;2023-04-12T06:49:33;9.40;99.90
4962;DHT22;2496;52.468;13.342;2023-04-12T06:52:00;9.80;99.90
4962;DHT22;2496;52.468;13.342;2023-04-12T06:54:29;10.00;99.90
4962;DHT22;2496;52.468;13.342;2023-04-12T06:56:56;10.00;99.90
4962;DHT22;2496;52.468;13.342;2023-04-12T06:59:23;10.00;99.90
4962;DHT22;2496;52.468;13.342;2023-04-12T07:01:50;10.00;99.90
4962;DHT22;2496;52.468;13.342;2023-04-12T07:04:17;10.10;99.90
4962;DHT22;2496;52.468;13.342;2023-04-12T07:06:44;10.20;99.90
4962;DHT22;2496;52.468;13.342;2023-04-12T07:09:11;10.20;99.90
4962;DHT22;2496;52.468;13.342;2023-04-12T07:11:39;10.00;99.90
4962;DHT22;2496;52.468;13.342;2023-04-12T07:14:06;10.00;99.90
4962;DHT22;2496;52.468;13.342;2023-04-12T07:16:33;9.80;99.90
4962;DHT22;2496;52.468;13.342;2023-04-12T07:19:01;9.90;99.90
4962;DHT22;2496;52.468;13.342;2023-04-12T07:21:28;9.90;99.90
4962;DHT22;2496;52.468;13.342;2023-04-12T07:23:55;10.00;99.90
4962;DHT22;2496;52.468;13.342;2023-04-12T07:26:22;10.10;99.90
4962;DHT22;2496;52.468;13.342;2023-04-12T07:28:51;10.10;99.90
4962;DHT22;2496;52.468;13.342;2023-04-12T07:31:18;10.10;99.90
4962;DHT22;2496;52.468;13.342;2023-04-12T07:33:45;10.10;99.90
4962;DHT22;2496;52.468;13.342;2023-04-12T07:36:13;10.10;99.90
4962;DHT22;2496;52.468;13.342;2023-04-12T07:38:45;10.10;99.90
4962;DHT22;2496;52.468;13.342;2023-04-12T07:41:12;10.10;99.90
4962;DHT22;2496;52.468;13.342;2023-04-12T07:43:39;10.20;99.90
4962;DHT22;2496;52.468;13.342;2023-04-12T07:46:07;10.20;99.90
4962;DHT22;2496;52.468;13.342;2023-04-12T07:48:34;10.40;99.90
4962;DHT22;2496;52.468;13.342;2023-04-12T07:51:01;10.50;99.90
4962;DHT22;2496;52.468;13.342;2023-04-12T07:53:28;10.60;99.90
4962;DHT22;2496;52.468;13.342;2023-04-12T07:55:56;10.80;99.90
4962;DHT22;2496;52.468;13.342;2023-04-12T07:58:23;11.00;99.90
4962;DHT22;2496;52.468;13.342;2023-04-12T08:00:52;11.30;99.90
4962;DHT22;2496;52.468;13.342;2023-04-12T08:03:20;11.60;99.90
4962;DHT22;2496;52.468;13.342;2023-04-12T08:05:47;11.80;99.90
4962;DHT22;2496;52.468;13.342;2023-04-12T08:08:18;12.00;99.90
4962;DHT22;2496;52.468;13.342;2023-04-12T08:10:46;12.30;99.90
4962;DHT22;2496;52.468;13.342;2023-04-12T08:13:13;12.60;99.00
4962;DHT22;2496;52.468;13.342;2023-04-12T08:15:40;12.80;98.80
4962;DHT22;2496;52.468;13.342;2023-04-12T08:18:08;12.70;98.40
4962;DHT22;2496;52.468;13.342;2023-04-12T08:20:37;12.80;97.90
4962;DHT22;2496;52.468;13.342;2023-04-12T08:23:05;12.80;97.90
4962;DHT22;2496;52.468;13.342;2023-04-12T08:25:32;13.10;97.70
4962;DHT22;2496;52.468;13.342;2023-04-12T08:27:59;13.00;97.00
4962;DHT22;2496;52.468;13.342;2023-04-12T08:30:26;12.90;96.80
4962;DHT22;2496;52.468;13.342;2023-04-12T08:32:53;12.90;97.00
4962;DHT22;2496;52.468;13.342;2023-04-12T08:35:22;12.90;96.70
4962;DHT22;2496;52.468;13.342;2023-04-12T08:37:51;13.00;96.60
4962;DHT22;2496;52.468;13.342;2023-04-12T08:40:18;13.40;96.30
4962;DHT22;2496;52.468;13.342;2023-04-12T08:42:46;13.50;95.20
4962;DHT22;2496;52.468;13.342;2023-04-12T08:45:13;13.70;95.20
4962;DHT22;2496;52.468;13.342;2023-04-12T08:47:42;13.90;94.00
4962;DHT22;2496;52.468;13.342;2023-04-12T08:50:10;14.00;94.40
4962;DHT22;2496;52.468;13.342;2023-04-12T08:52:38;14.30;93.40
4962;DHT22;2496;52.468;13.342;2023-04-12T08:55:08;14.40;92.00
4962;DHT22;2496;52.468;13.342;2023-04-12T08:57:37;14.50;91.40
4962;DHT22;2496;52.468;13.342;2023-04-12T09:00:07;14.30;90.90
4962;DHT22;2496;52.468;13.342;2023-04-12T09:02:35;14.30;91.70
4962;DHT22;2496;52.468;13.342;2023-04-12T09:05:02;14.40;91.50
4962;DHT22;2496;52.468;13.342;2023-04-12T09:07:30;14.50;91.40
4962;DHT22;2496;52.468;13.342;2023-04-12T09:09:57;14.60;90.80
4962;DHT22;2496;52.468;13.342;2023-04-12T09:12:26;14.70;90.90
4962;DHT22;2496;52.468;13.342;2023-04-12T09:15:08;14.90;91.10
4962;DHT22;2496;52.468;13.342;2023-04-12T09:17:37;14.90;90.70
4962;DHT22;2496;52.468;13.342;2023-04-12T09:20:32;15.10;90.80
4962;DHT22;2496;52.468;13.342;2023-04-12T09:22:59;15.30;90.50
4962;DHT22;2496;52.468;13.342;2023-04-12T09:25:36;15.40;90.00
4962;DHT22;2496;52.468;13.342;2023-04-12T09:28:17;15.00;90.00
4962;DHT22;2496;52.468;13.342;2023-04-12T09:30:45;15.00;90.70
4962;DHT22;2496;52.468;13.342;2023-04-12T09:33:16;15.10;89.50
4962;DHT22;2496;52.468;13.342;2023-04-12T09:35:44;14.90;88.80
4962;DHT22;2496;52.468;13.342;2023-04-12T09:38:11;14.70;88.90
4962;DHT22;2496;52.468;13.342;2023-04-12T09:40:38;14.50;86.90
4962;DHT22;2496;52.468;13.342;2023-04-12T09:43:06;14.20;87.90
4962;DHT22;2496;52.468;13.342;2023-04-12T09:45:35;13.90;88.30
4962;DHT22;2496;52.468;13.342;2023-04-12T09:48:03;13.80;88.60
4962;DHT22;2496;52.468;13.342;2023-04-12T09:50:31;13.60;88.40
4962;DHT22;2496;52.468;13.342;2023-04-12T09:52:59;13.50;88.00
4962;DHT22;2496;52.468;13.342;2023-04-12T09:55:28;13.50;85.90
4962;DHT22;2496;52.468;13.342;2023-04-12T09:58:00;13.40;85.40
4962;DHT22;2496;52.468;13.342;2023-04-12T10:00:30;13.40;85.80
4962;DHT22;2496;52.468;13.342;2023-04-12T10:02:59;13.30;84.40
4962;DHT22;2496;52.468;13.342;2023-04-12T10:05:27;13.20;84.20
4962;DHT22;2496;52.468;13.342;2023-04-12T10:07:55;13.10;84.20
4962;DHT22;2496;52.468;13.342;2023-04-12T10:10:23;13.00;85.60
4962;DHT22;2496;52.468;13.342;2023-04-12T10:12:50;12.90;85.80
4962;DHT22;2496;52.468;13.342;2023-04-12T10:15:17;12.90;85.40
4962;DHT22;2496;52.468;13.342;2023-04-12T10:17:50;12.90;85.30
4962;DHT22;2496;52.468;13.342;2023-04-12T10:20:18;12.90;85.90
4962;DHT22;2496;52.468;13.342;2023-04-12T10:22:47;12.80;86.40
4962;DHT22;2496;52.468;13.342;2023-04-12T10:25:16;12.80;87.30
4962;DHT22;2496;52.468;13.342;2023-04-12T10:27:44;12.80;87.30
4962;DHT22;2496;52.468;13.342;2023-04-12T10:30:19;12.90;87.40
4962;DHT22;2496;52.468;13.342;2023-04-12T10:32:48;13.00;86.00
4962;DHT22;2496;52.468;13.342;2023-04-12T10:35:15;13.00;85.90
4962;DHT22;2496;52.468;13.342;2023-04-12T10:37:58;13.10;86.20
4962;DHT22;2496;52.468;13.342;2023-04-12T10:40:26;13.10;85.90
4962;DHT22;2496;52.468;13.342;2023-04-12T10:45:56;13.20;86.60
4962;DHT22;2496;52.468;13.342;2023-04-12T10:48:31;13.20;86.20
4962;DHT22;2496;52.468;13.342;2023-04-12T10:51:14;13.20;86.00
4962;DHT22;2496;52.468;13.342;2023-04-12T10:53:42;13.20;85.40
4962;DHT22;2496;52.468;13.342;2023-04-12T10:56:35;13.20;86.40
4962;DHT22;2496;52.468;13.342;2023-04-12T10:59:03;13.20;85.60
4962;DHT22;2496;52.468;13.342;2023-04-12T11:01:31;13.20;85.80
4962;DHT22;2496;52.468;13.342;2023-04-12T11:04:07;13.20;86.00
4962;DHT22;2496;52.468;13.342;2023-04-12T11:06:42;13.30;85.70
4962;DHT22;2496;52.468;13.342;2023-04-12T11:09:20;13.30;86.00
4962;DHT22;2496;52.468;13.342;2023-04-12T11:11:48;13.40;85.10
4962;DHT22;2496;52.468;13.342;2023-04-12T11:14:15;13.40;85.20
4962;DHT22;2496;52.468;13.342;2023-04-12T11:17:20;13.40;84.70
4962;DHT22;2496;52.468;13.342;2023-04-12T11:19:54;13.40;85.50
4962;DHT22;2496;52.468;13.342;2023-04-12T11:22:24;13.50;85.70
4962;DHT22;2496;52.468;13.342;2023-04-12T11:24:53;13.50;85.40
4962;DHT22;2496;52.468;13.342;2023-04-12T11:27:22;13.60;85.10
4962;DHT22;2496;52.468;13.342;2023-04-12T11:29:51;13.60;84.80
4962;DHT22;2496;52.468;13.342;2023-04-12T11:32:21;13.70;83.90
4962;DHT22;2496;52.468;13.342;2023-04-12T11:34:50;13.70;84.00
4962;DHT22;2496;52.468;13.342;2023-04-12T11:37:18;13.80;84.30
4962;DHT22;2496;52.468;13.342;2023-04-12T11:39:47;13.80;84.00
4962;DHT22;2496;52.468;13.342;2023-04-12T11:42:17;13.90;84.10
4962;DHT22;2496;52.468;13.342;2023-04-12T11:44:45;13.90;83.00
4962;DHT22;2496;52.468;13.342;2023-04-12T11:47:17;13.90;82.50
4962;DHT22;2496;52.468;13.342;2023-04-12T11:49:45;13.90;82.00
4962;DHT22;2496;52.468;13.342;2023-04-12T11:52:15;13.90;82.20
4962;DHT22;2496;52.468;13.342;2023-04-12T11:54:44;14.00;83.10
4962;DHT22;2496;52.468;13.342;2023-04-12T11:57:14;14.10;82.80
4962;DHT22;2496;52.468;13.342;2023-04-12T11:59:44;14.10;82.50
4962;DHT22;2496;52.468;13.342;2023-04-12T12:02:13;14.10;81.20
4962;DHT22;2496;52.468;13.342;2023-04-12T12:04:42;14.10;80.90
4962;DHT22;2496;52.468;13.342;2023-04-12T12:07:11;14.00;81.00
4962;DHT22;2496;52.468;13.342;2023-04-12T12:09:39;14.00;80.90
4962;DHT22;2496;52.468;13.342;2023-04-12T12:12:10;14.00;81.20
4962;DHT22;2496;52.468;13.342;2023-04-12T12:14:37;14.00;80.80
4962;DHT22;2496;52.468;13.342;2023-04-12T12:17:09;14.10;81.00
4962;DHT22;2496;52.468;13.342;2023-04-12T12:19:38;14.10;80.50
4962;DHT22;2496;52.468;13.342;2023-04-12T12:22:13;14.10;80.60
4962;DHT22;2496;52.468;13.342;2023-04-12T12:24:48;14.10;80.60
4962;DHT22;2496;52.468;13.342;2023-04-12T12:27:18;14.20;81.20
4962;DHT22;2496;52.468;13.342;2023-04-12T12:29:49;14.20;81.70
4962;DHT22;2496;52.468;13.342;2023-04-12T12:32:18;14.30;80.60
4962;DHT22;2496;52.468;13.342;2023-04-12T12:34:52;14.40;80.50
4962;DHT22;2496;52.468;13.342;2023-04-12T12:37:21;14.40;80.10
4962;DHT22;2496;52.468;13.342;2023-04-12T12:40:07;14.50;80.70
4962;DHT22;2496;52.468;13.342;2023-04-12T12:42:45;14.50;81.00
4962;DHT22;2496;52.468;13.342;2023-04-12T12:45:13;14.50;80.70
4962;DHT22;2496;52.468;13.342;2023-04-12T12:47:49;14.50;81.50
4962;DHT22;2496;52.468;13.342;2023-04-12T12:50:17;14.50;80.70
4962;DHT22;2496;52.468;13.342;2023-04-12T12:52:46;14.60;80.60
4962;DHT22;2496;52.468;13.342;2023-04-12T12:55:15;14.60;80.10
4962;DHT22;2496;52.468;13.342;2023-04-12T12:57:43;14.50;80.20
4962;DHT22;2496;52.468;13.342;2023-04-12T13:00:12;14.40;80.70
4962;DHT22;2496;52.468;13.342;2023-04-12T13:02:40;14.40;80.90
4962;DHT22;2496;52.468;13.342;2023-04-12T13:05:07;14.40;80.60
4962;DHT22;2496;52.468;13.342;2023-04-12T13:07:35;14.40;80.20
4962;DHT22;2496;52.468;13.342;2023-04-12T13:10:02;14.40;80.40
4962;DHT22;2496;52.468;13.342;2023-04-12T13:12:31;14.50;80.40
4962;DHT22;2496;52.468;13.342;2023-04-12T13:14:58;14.50;80.10
4962;DHT22;2496;52.468;13.342;2023-04-12T13:17:26;14.60;80.10
4962;DHT22;2496;52.468;13.342;2023-04-12T13:19:53;14.60;79.20
4962;DHT22;2496;52.468;13.342;2023-04-12T13:22:20;14.60;79.20
4962;DHT22;2496;52.468;13.342;2023-04-12T13:24:47;14.70;78.90
4962;DHT22;2496;52.468;13.342;2023-04-12T13:27:15;14.70;79.20
4962;DHT22;2496;52.468;13.342;2023-04-12T13:29:44;14.70;79.00
4962;DHT22;2496;52.468;13.342;2023-04-12T13:32:11;14.70;79.10
4962;DHT22;2496;52.468;13.342;2023-04-12T13:34:38;14.70;79.30
4962;DHT22;2496;52.468;13.342;2023-04-12T13:37:07;14.70;79.40
4962;DHT22;2496;52.468;13.342;2023-04-12T13:39:34;14.60;80.00
4962;DHT22;2496;52.468;13.342;2023-04-12T13:42:01;14.60;80.20
4962;DHT22;2496;52.468;13.342;2023-04-12T13:44:28;14.60;80.40
4962;DHT22;2496;52.468;13.342;2023-04-12T13:46:57;14.60;80.00
4962;DHT22;2496;52.468;13.342;2023-04-12T13:49:24;14.60;80.10
4962;DHT22;2496;52.468;13.342;2023-04-12T13:51:51;14.60;80.30
4962;DHT22;2496;52.468;13.342;2023-04-12T13:54:18;14.50;80.30
4962;DHT22;2496;52.468;13.342;2023-04-12T13:56:45;14.50;81.30
4962;DHT22;2496;52.468;13.342;2023-04-12T13:59:12;14.50;81.50
4962;DHT22;2496;52.468;13.342;2023-04-12T14:01:39;14.50;81.60
4962;DHT22;2496;52.468;13.342;2023-04-12T14:04:07;14.50;82.00
4962;DHT22;2496;52.468;13.342;2023-04-12T14:06:35;14.60;81.40
4962;DHT22;2496;52.468;13.342;2023-04-12T14:09:03;14.60;80.70
4962;DHT22;2496;52.468;13.342;2023-04-12T14:11:43;14.50;80.20
4962;DHT22;2496;52.468;13.342;2023-04-12T14:14:11;14.50;80.50
4962;DHT22;2496;52.468;13.342;2023-04-12T14:16:38;14.50;80.10
4962;DHT22;2496;52.468;13.342;2023-04-12T14:19:07;14.40;80.10
4962;DHT22;2496;52.468;13.342;2023-04-12T14:21:34;14.40;80.00
4962;DHT22;2496;52.468;13.342;2023-04-12T14:24:02;14.30;80.20
4962;DHT22;2496;52.468;13.342;2023-04-12T14:26:29;14.30;80.40
4962;DHT22;2496;52.468;13.342;2023-04-12T14:28:56;14.30;80.30
4962;DHT22;2496;52.468;13.342;2023-04-12T14:31:24;14.30;80.90
4962;DHT22;2496;52.468;13.342;2023-04-12T14:33:51;14.30;82.90
4962;DHT22;2496;52.468;13.342;2023-04-12T14:36:20;14.20;83.50
4962;DHT22;2496;52.468;13.342;2023-04-12T14:38:47;14.20;83.80
4962;DHT22;2496;52.468;13.342;2023-04-12T14:41:15;14.10;83.00
4962;DHT22;2496;52.468;13.342;2023-04-12T14:43:42;14.10;83.40
4962;DHT22;2496;52.468;13.342;2023-04-12T14:46:10;14.10;84.00
4962;DHT22;2496;52.468;13.342;2023-04-12T14:48:38;14.00;84.50
4962;DHT22;2496;52.468;13.342;2023-04-12T14:51:06;14.00;85.30
4962;DHT22;2496;52.468;13.342;2023-04-12T14:53:35;14.00;85.90
4962;DHT22;2496;52.468;13.342;2023-04-12T14:56:05;13.90;86.20
4962;DHT22;2496;52.468;13.342;2023-04-12T14:58:43;13.90;86.20
4962;DHT22;2496;52.468;13.342;2023-04-12T15:01:11;13.90;86.70
4962;DHT22;2496;52.468;13.342;2023-04-12T15:03:38;13.80;87.20
4962;DHT22;2496;52.468;13.342;2023-04-12T15:06:07;13.80;87.30
4962;DHT22;2496;52.468;13.342;2023-04-12T15:08:35;13.70;90.10
4962;DHT22;2496;52.468;13.342;2023-04-12T15:11:06;13.50;90.50
4962;DHT22;2496;52.468;13.342;2023-04-12T15:13:37;13.50;90.70
4962;DHT22;2496;52.468;13.342;2023-04-12T15:16:06;13.50;92.10
4962;DHT22;2496;52.468;13.342;2023-04-12T15:18:35;13.40;93.20
4962;DHT22;2496;52.468;13.342;2023-04-12T15:21:05;13.30;93.80
4962;DHT22;2496;52.468;13.342;2023-04-12T15:23:36;13.20;94.50
4962;DHT22;2496;52.468;13.342;2023-04-12T15:26:04;13.10;95.60
4962;DHT22;2496;52.468;13.342;2023-04-12T15:28:33;13.00;96.60
4962;DHT22;2496;52.468;13.342;2023-04-12T15:31:01;12.90;97.60
4962;DHT22;2496;52.468;13.342;2023-04-12T15:33:29;12.80;98.50
4962;DHT22;2496;52.468;13.342;2023-04-12T15:36:00;12.70;99.10
4962;DHT22;2496;52.468;13.342;2023-04-12T15:38:27;12.60;99.70
4962;DHT22;2496;52.468;13.342;2023-04-12T15:40:57;12.50;99.90
4962;DHT22;2496;52.468;13.342;2023-04-12T15:43:25;12.50;99.90
4962;DHT22;2496;52.468;13.342;2023-04-12T15:45:52;12.40;99.90
4962;DHT22;2496;52.468;13.342;2023-04-12T15:48:20;12.30;99.90
4962;DHT22;2496;52.468;13.342;2023-04-12T15:50:48;12.20;99.90
4962;DHT22;2496;52.468;13.342;2023-04-12T15:53:17;12.20;99.90
4962;DHT22;2496;52.468;13.342;2023-04-12T15:55:45;12.20;99.90
4962;DHT22;2496;52.468;13.342;2023-04-12T15:58:13;12.20;99.90
4962;DHT22;2496;52.468;13.342;2023-04-12T16:00:40;12.20;99.90
4962;DHT22;2496;52.468;13.342;2023-04-12T16:03:08;12.10;99.90
4962;DHT22;2496;52.468;13.342;2023-04-12T16:05:39;12.20;99.90